Time;durP1;ratioP1;P1;durP2;ratioP2;P2;SDS_P1;SDS_P2;PMS_P1;PMS_P2;Temp;Humidity;BMP_temperature;BMP_pressure;BME280_temperature;BME280_humidity;BME280_pressure;Samples;Min_cycle;Max_cycle;Signal;HPM_P1;HPM_P2
2022/03/05 00:01:24;;;;;;;24.07;13.20;;;-3.50;96.30;;;;;;4920134;29;20290;-79
2022/03/05 00:03:49;;;;;;;23.60;14.13;;;-3.60;96.30;;;;;;4937551;29;20212;-80
2022/03/05 00:06:15;;;;;;;31.50;15.20;;;-3.70;96.30;;;;;;4937592;29;20548;-79
2022/03/05 00:08:41;;;;;;;19.70;13.10;;;-3.80;96.30;;;;;;4939667;29;20210;-79
2022/03/05 00:11:07;;;;;;;25.57;13.80;;;-3.80;96.30;;;;;;4920370;29;20195;-78
2022/03/05 00:13:35;;;;;;;19.33;11.70;;;-3.90;96.30;;;;;;4937364;29;20966;-79
2022/03/05 00:16:01;;;;;;;26.10;13.03;;;-3.90;96.30;;;;;;4919840;29;20796;-78
2022/03/05 00:18:27;;;;;;;25.83;11.50;;;-4.00;96.30;;;;;;4919697;29;20427;-79
2022/03/05 00:20:53;;;;;;;19.67;12.33;;;-4.00;96.30;;;;;;4937227;29;20199;-79
2022/03/05 00:23:19;;;;;;;21.50;12.73;;;-4.00;96.30;;;;;;4926803;29;20175;-80
2022/03/05 00:25:44;;;;;;;22.83;12.90;;;-4.00;96.30;;;;;;4957562;29;20258;-80
2022/03/05 00:28:11;;;;;;;21.40;11.97;;;-4.10;96.30;;;;;;4957172;29;20692;-79
2022/03/05 00:30:36;;;;;;;22.80;12.77;;;-4.10;96.30;;;;;;4939153;28;20254;-79
2022/03/05 00:33:02;;;;;;;23.40;12.87;;;-4.20;96.30;;;;;;4956237;29;20831;-79
2022/03/05 00:35:29;;;;;;;24.60;12.83;;;-4.30;96.30;;;;;;4956375;29;20644;-79
2022/03/05 00:37:55;;;;;;;23.40;13.63;;;-4.30;96.30;;;;;;4938792;29;20446;-78
2022/03/05 00:40:21;;;;;;;22.43;12.60;;;-4.30;96.30;;;;;;4938944;28;20925;-79
2022/03/05 00:42:47;;;;;;;29.57;12.60;;;-4.40;96.30;;;;;;4956305;29;20418;-79
2022/03/05 00:45:12;;;;;;;23.33;12.90;;;-4.50;96.30;;;;;;4938828;29;20171;-79
2022/03/05 00:47:38;;;;;;;28.43;11.93;;;-4.50;96.30;;;;;;4955749;29;20198;-79
2022/03/05 00:50:06;;;;;;;21.20;12.23;;;-4.60;96.30;;;;;;4929555;29;20183;-79
2022/03/05 00:52:32;;;;;;;26.97;12.90;;;-4.70;96.30;;;;;;4936604;29;20219;-79
2022/03/05 00:54:57;;;;;;;24.40;12.63;;;-4.70;96.30;;;;;;4936502;29;20483;-79
2022/03/05 00:57:23;;;;;;;26.53;13.37;;;-4.60;96.30;;;;;;4919579;29;20279;-79
2022/03/05 00:59:48;;;;;;;23.03;13.20;;;-4.60;96.30;;;;;;4936450;29;20191;-78
2022/03/05 05:00:27;;;;;;;17.00;10.07;;;-6.80;96.30;;;;;;5919310;23;21249;-79
2022/03/05 05:02:52;;;;;;;16.33;10.43;;;-6.70;96.30;;;;;;4935334;29;20420;-79
2022/03/05 05:05:18;;;;;;;17.60;9.03;;;-6.80;96.30;;;;;;4920005;29;20180;-78
2022/03/05 05:07:43;;;;;;;14.67;9.40;;;-6.80;96.30;;;;;;4918771;29;20635;-78
2022/03/05 05:10:09;;;;;;;14.33;8.57;;;-6.70;96.30;;;;;;4936056;29;20215;-77
2022/03/05 05:12:34;;;;;;;17.57;9.00;;;-6.70;96.30;;;;;;4919245;29;20186;-78
2022/03/05 05:15:00;;;;;;;15.03;8.90;;;-6.60;96.30;;;;;;4937208;29;20254;-78
2022/03/05 05:17:25;;;;;;;15.90;9.73;;;-6.60;96.30;;;;;;4936507;29;20211;-81
2022/03/05 05:19:51;;;;;;;18.50;9.47;;;-6.70;96.30;;;;;;4919741;29;20558;-78
2022/03/05 07:00:40;;;;;;;13.27;8.30;;;-4.40;96.30;;;;;;4951762;23;20491;-79
2022/03/05 07:03:05;;;;;;;14.83;7.90;;;-4.30;96.30;;;;;;4919043;29;20415;-79
2022/03/05 07:05:31;;;;;;;14.60;9.30;;;-4.20;96.30;;;;;;4928654;29;20532;-80
2022/03/05 07:07:56;;;;;;;17.27;10.10;;;-4.00;96.30;;;;;;4903053;29;20224;-80
2022/03/05 07:10:22;;;;;;;12.53;8.50;;;-3.90;96.30;;;;;;4925695;29;20215;-81
2022/03/05 07:12:47;;;;;;;12.27;8.13;;;-3.70;96.30;;;;;;4906693;29;20232;-79
2022/03/05 07:15:13;;;;;;;17.07;9.23;;;-3.60;96.30;;;;;;4913820;29;20202;-78
2022/03/05 07:17:47;;;;;;;13.77;8.93;;;-3.50;96.30;;;;;;4934918;29;20555;-78
2022/03/05 07:20:12;;;;;;;16.70;8.90;;;-3.40;96.30;;;;;;4914324;29;20709;-78
2022/03/05 07:22:37;;;;;;;12.70;7.70;;;-3.30;96.30;;;;;;4909880;29;20440;-79
2022/03/05 07:25:03;;;;;;;15.00;8.10;;;-3.20;96.30;;;;;;4929548;29;20175;-81
2022/03/05 07:27:29;;;;;;;10.90;7.90;;;-3.00;96.30;;;;;;4941339;29;20211;-80
2022/03/05 07:29:54;;;;;;;13.33;8.20;;;-3.00;96.30;;;;;;4933299;29;20852;-80
2022/03/05 07:32:20;;;;;;;13.23;8.57;;;-2.90;96.30;;;;;;4928371;29;20228;-80
2022/03/05 07:34:45;;;;;;;13.43;7.23;;;-2.80;96.30;;;;;;4916049;29;20187;-80
2022/03/05 07:37:11;;;;;;;19.90;7.60;;;-2.70;96.30;;;;;;4941495;29;20191;-80
2022/03/05 07:39:36;;;;;;;11.53;7.10;;;-2.90;96.30;;;;;;4925318;29;20195;-80
2022/03/05 07:42:02;;;;;;;14.00;8.10;;;-2.70;96.30;;;;;;4925600;29;20211;-81
2022/03/05 07:44:28;;;;;;;11.60;7.77;;;-2.50;96.30;;;;;;4941713;29;20183;-79
2022/03/05 07:46:53;;;;;;;13.27;9.03;;;-2.60;96.30;;;;;;4904788;29;20188;-80
2022/03/05 07:49:19;;;;;;;15.07;9.90;;;-2.40;96.30;;;;;;4907050;29;20188;-81
2022/03/05 07:51:44;;;;;;;18.33;10.47;;;-2.40;96.30;;;;;;4924284;29;20204;-82
2022/03/05 07:54:10;;;;;;;17.97;10.27;;;-2.30;96.30;;;;;;4905679;29;20185;-80
2022/03/05 07:56:36;;;;;;;14.00;9.83;;;-2.20;96.30;;;;;;4922897;29;20176;-82
2022/03/05 07:59:01;;;;;;;18.90;11.87;;;-2.00;96.30;;;;;;4906172;29;20180;-73
2022/03/05 08:01:27;;;;;;;14.10;9.50;;;-1.80;96.30;;;;;;4918811;29;20774;-78
2022/03/05 08:03:52;;;;;;;14.50;10.57;;;-1.70;96.30;;;;;;4901811;29;20313;-81
2022/03/05 08:06:18;;;;;;;19.53;12.00;;;-1.50;96.30;;;;;;4901741;29;20184;-74
2022/03/05 08:08:43;;;;;;;20.57;11.17;;;-1.30;96.30;;;;;;4918124;29;20223;-78
2022/03/05 08:11:10;;;;;;;17.17;12.40;;;-1.20;96.30;;;;;;4902139;29;20570;-84
2022/03/05 08:13:35;;;;;;;17.83;10.50;;;-1.20;96.30;;;;;;4902365;29;20184;-78
2022/03/05 08:16:01;;;;;;;16.03;10.40;;;-1.10;96.30;;;;;;4902870;29;20433;-78
2022/03/05 08:18:26;;;;;;;12.90;9.87;;;-1.00;96.30;;;;;;4919440;29;20232;-78
2022/03/05 08:20:53;;;;;;;17.73;9.90;;;-0.80;96.30;;;;;;4948494;29;20196;-80
2022/03/05 08:23:19;;;;;;;16.10;8.33;;;-1.00;96.30;;;;;;4916580;29;20323;-79
2022/03/05 08:25:44;;;;;;;12.70;8.97;;;-0.80;96.30;;;;;;4937264;29;20931;-79
2022/03/05 08:28:10;;;;;;;13.37;8.70;;;-0.70;96.30;;;;;;4919548;29;20207;-79
2022/03/05 08:30:35;;;;;;;12.43;8.20;;;-0.50;96.30;;;;;;4938479;29;20196;-79
2022/03/05 08:33:01;;;;;;;11.67;7.60;;;-0.50;96.30;;;;;;4921098;29;20179;-81
2022/03/05 08:35:27;;;;;;;15.60;7.60;;;-0.60;96.30;;;;;;4938959;29;20661;-80
2022/03/05 08:37:53;;;;;;;11.57;7.83;;;-0.40;96.30;;;;;;4920779;29;20552;-81
2022/03/05 08:40:19;;;;;;;11.00;7.20;;;-0.20;96.30;;;;;;4921202;29;20263;-81
2022/03/05 08:42:48;;;;;;;9.73;7.20;;;-0.10;96.30;;;;;;4920689;29;20592;-80
2022/03/05 08:45:13;;;;;;;15.73;7.73;;;0.20;96.30;;;;;;4909009;29;20515;-78
2022/03/05 08:47:39;;;;;;;9.20;6.60;;;0.10;96.30;;;;;;4917484;29;21096;-79
2022/03/05 08:50:06;;;;;;;10.67;7.30;;;0.30;96.30;;;;;;4918322;29;20176;-78
2022/03/05 08:52:38;;;;;;;10.10;6.20;;;0.40;96.30;;;;;;4917861;29;20806;-78
2022/03/05 08:55:09;;;;;;;9.10;7.00;;;0.50;96.30;;;;;;4901033;29;20421;-78
2022/03/05 08:57:35;;;;;;;10.50;7.90;;;0.60;96.30;;;;;;4917079;29;20420;-79
2022/03/05 09:00:01;;;;;;;10.37;7.30;;;0.80;96.30;;;;;;4900867;29;20441;-79
2022/03/05 09:02:26;;;;;;;13.37;8.13;;;1.10;96.30;;;;;;4900841;29;20200;-79
2022/03/05 09:04:53;;;;;;;9.30;6.53;;;1.40;96.30;;;;;;4901834;29;20213;-76
2022/03/05 09:07:18;;;;;;;9.27;6.50;;;1.30;96.30;;;;;;4901491;29;20221;-79
2022/03/05 09:09:44;;;;;;;11.37;7.40;;;1.50;96.30;;;;;;4926496;29;20415;-80
2022/03/05 09:12:10;;;;;;;9.10;6.00;;;1.70;96.30;;;;;;4937689;29;20227;-80
2022/03/05 09:14:35;;;;;;;9.23;6.10;;;1.60;96.30;;;;;;4938005;29;20180;-81
2022/03/05 09:17:01;;;;;;;6.87;5.40;;;1.50;96.30;;;;;;4919593;29;20234;-81
2022/03/05 09:19:26;;;;;;;9.30;5.80;;;1.80;96.30;;;;;;4920211;29;20172;-81
2022/03/05 09:21:52;;;;;;;8.83;5.80;;;2.30;96.30;;;;;;4938812;29;20647;-82
2022/03/05 09:24:17;;;;;;;10.13;5.63;;;2.40;96.30;;;;;;4923257;29;20176;-81
2022/03/05 09:26:43;;;;;;;8.90;6.60;;;2.60;96.30;;;;;;4920470;29;20279;-83
2022/03/05 09:29:09;;;;;;;6.70;5.20;;;3.10;96.30;;;;;;4918059;29;20235;-83
2022/03/05 09:31:35;;;;;;;8.37;6.10;;;3.20;96.30;;;;;;4922203;29;20435;-83
2022/03/05 09:34:00;;;;;;;6.00;5.40;;;3.60;96.30;;;;;;4939347;29;20689;-83
2022/03/05 09:36:26;;;;;;;6.13;5.30;;;4.20;96.30;;;;;;4940886;29;20231;-83
2022/03/05 09:38:51;;;;;;;7.37;5.87;;;4.60;96.30;;;;;;4922299;29;20176;-84
2022/03/05 09:41:17;;;;;;;7.40;5.20;;;5.00;96.30;;;;;;4920683;29;20195;-84
2022/03/05 09:43:43;;;;;;;5.37;4.70;;;4.20;96.30;;;;;;4922326;29;20300;-83
2022/03/05 09:46:10;;;;;;;9.80;6.10;;;4.40;96.30;;;;;;4922391;29;20741;-83
2022/03/05 09:48:39;;;;;;;9.03;5.97;;;4.40;96.30;;;;;;4920847;29;20459;-83
2022/03/05 09:51:04;;;;;;;7.40;5.63;;;4.20;96.30;;;;;;4941389;29;20446;-84
2022/03/05 09:53:31;;;;;;;13.90;8.20;;;4.20;96.30;;;;;;4920733;29;20415;-83
2022/03/05 09:55:57;;;;;;;7.87;5.30;;;4.40;96.30;;;;;;4937919;29;20175;-82
2022/03/05 09:58:22;;;;;;;9.03;6.37;;;4.60;96.30;;;;;;4944730;29;20434;-83
2022/03/05 10:00:49;;;;;;;7.53;5.90;;;5.10;96.30;;;;;;4938526;29;20462;-83
2022/03/05 10:03:15;;;;;;;6.20;5.60;;;5.60;96.30;;;;;;4956642;29;20203;-83
2022/03/05 10:05:41;;;;;;;8.80;6.50;;;6.10;96.30;;;;;;4936194;29;20468;-83
2022/03/05 10:08:15;;;;;;;9.00;6.13;;;6.80;96.30;;;;;;4921973;29;20463;-83
2022/03/05 10:10:52;;;;;;;7.47;6.53;;;7.00;96.30;;;;;;4915244;29;20252;-83
2022/03/05 10:13:32;;;;;;;8.40;6.63;;;6.80;96.30;;;;;;4910326;29;20544;-83
2022/03/05 10:16:03;;;;;;;10.20;5.33;;;7.00;96.30;;;;;;4901271;29;20424;-82
2022/03/05 10:18:34;;;;;;;7.40;5.80;;;6.80;96.30;;;;;;4901552;29;20830;-82
2022/03/05 10:21:06;;;;;;;8.37;5.63;;;7.20;96.30;;;;;;4901862;29;20444;-82
2022/03/05 10:23:37;;;;;;;6.67;4.87;;;7.50;96.30;;;;;;4902239;29;20431;-83
2022/03/05 10:26:05;;;;;;;7.83;5.70;;;7.60;96.30;;;;;;4916899;29;20492;-83
2022/03/05 10:28:31;;;;;;;8.00;6.33;;;7.90;96.30;;;;;;4916304;29;20455;-83
2022/03/05 10:31:03;;;;;;;9.13;5.70;;;8.10;96.30;;;;;;4923217;29;20486;-82
2022/03/05 10:33:33;;;;;;;8.60;5.40;;;8.70;96.30;;;;;;4919853;29;20825;-83
2022/03/05 10:36:01;;;;;;;9.50;5.40;;;8.20;96.30;;;;;;4916045;29;20420;-83
2022/03/05 10:38:50;;;;;;;7.63;5.53;;;8.10;96.30;;;;;;4907314;29;20420;-82
2022/03/05 10:41:18;;;;;;;6.80;5.70;;;7.70;96.30;;;;;;4928107;29;20448;-82
2022/03/05 10:43:47;;;;;;;6.10;4.27;;;7.70;96.30;;;;;;4921182;29;20431;-83
2022/03/05 10:46:12;;;;;;;7.20;4.90;;;7.00;94.50;;;;;;4920057;29;20426;-81
2022/03/05 10:48:41;;;;;;;3.93;2.63;;;7.10;96.30;;;;;;4934823;29;20943;-83
2022/03/05 10:51:14;;;;;;;1.10;0.90;;;7.00;92.60;;;;;;4918532;29;20282;-79
2022/03/05 10:53:44;;;;;;;4.00;2.47;;;5.80;76.90;;;;;;4935501;29;20452;-82
2022/03/05 10:56:26;;;;;;;3.30;2.10;;;5.10;85.50;;;;;;4935535;29;20785;-81
2022/03/05 10:59:04;;;;;;;3.10;2.17;;;4.50;85.40;;;;;;4934816;29;20407;-82
2022/03/05 11:01:30;;;;;;;1.97;1.70;;;4.40;87.00;;;;;;4922330;29;20546;-81
2022/03/05 11:03:57;;;;;;;2.10;1.80;;;4.40;86.40;;;;;;4939401;29;20433;-81
2022/03/05 11:06:23;;;;;;;3.00;2.33;;;4.20;90.90;;;;;;4939216;29;20422;-81
2022/03/05 11:08:50;;;;;;;2.60;1.70;;;4.10;91.80;;;;;;4938625;29;20547;-81
2022/03/05 11:11:17;;;;;;;3.27;2.20;;;4.00;90.90;;;;;;4939024;29;20435;-81
2022/03/05 11:13:43;;;;;;;3.50;1.87;;;4.10;90.40;;;;;;4939408;29;20419;-79
2022/03/05 11:16:09;;;;;;;3.57;2.83;;;3.90;85.90;;;;;;4921657;29;20914;-79
2022/03/05 11:18:39;;;;;;;4.07;1.87;;;4.20;94.00;;;;;;4936071;29;20418;-80
2022/03/05 11:21:05;;;;;;;2.53;1.77;;;4.10;89.00;;;;;;4922037;29;20460;-79
2022/03/05 11:23:35;;;;;;;2.13;1.50;;;4.00;85.00;;;;;;4919485;29;20456;-79
2022/03/05 11:26:01;;;;;;;3.53;2.20;;;4.10;84.10;;;;;;4908754;29;20933;-79
2022/03/05 11:28:39;;;;;;;3.67;2.67;;;4.20;85.90;;;;;;4905764;29;20470;-75
2022/03/05 11:31:14;;;;;;;5.77;3.60;;;3.90;89.90;;;;;;4919586;29;20196;-81
2022/03/05 11:33:43;;;;;;;3.50;2.93;;;3.80;95.00;;;;;;4902145;29;20800;-80
2022/03/05 11:36:28;;;;;;;4.93;2.30;;;3.70;90.70;;;;;;4936317;29;20427;-80
2022/03/05 11:39:05;;;;;;;8.30;2.90;;;3.50;89.70;;;;;;4921648;29;20491;-80
2022/03/05 11:41:31;;;;;;;2.80;2.00;;;3.80;90.90;;;;;;4920707;29;20484;-81
2022/03/05 11:44:12;;;;;;;2.60;2.00;;;3.80;89.60;;;;;;4921188;29;20415;-79
2022/03/05 11:46:37;;;;;;;3.23;1.80;;;3.90;89.10;;;;;;4938822;29;20695;-81
2022/03/05 11:49:07;;;;;;;1.73;1.60;;;3.80;85.50;;;;;;4937313;29;20459;-81
2022/03/05 11:51:49;;;;;;;2.40;1.50;;;3.70;86.20;;;;;;4939061;29;20286;-81
2022/03/05 11:54:17;;;;;;;3.10;1.73;;;3.60;85.20;;;;;;4921722;29;20420;-80
2022/03/05 11:57:08;;;;;;;2.57;1.57;;;3.50;85.10;;;;;;4923725;29;20422;-80
2022/03/05 11:59:39;;;;;;;1.70;1.27;;;3.30;85.40;;;;;;4921722;29;20956;-81
2022/03/05 12:02:05;;;;;;;1.80;1.40;;;3.20;86.50;;;;;;4911258;29;20452;-80
2022/03/05 12:04:31;;;;;;;2.63;1.63;;;3.30;87.70;;;;;;4921041;29;20427;-80
2022/03/05 12:06:58;;;;;;;1.57;1.30;;;3.40;86.90;;;;;;4905330;29;20176;-79
2022/03/05 12:09:43;;;;;;;1.33;1.23;;;3.40;88.00;;;;;;4910651;29;20424;-80
2022/03/05 12:12:14;;;;;;;2.53;1.50;;;3.60;88.30;;;;;;4921783;29;20428;-79
2022/03/05 12:14:57;;;;;;;2.13;1.93;;;3.60;89.30;;;;;;4925711;29;20433;-79
2022/03/05 12:17:24;;;;;;;2.40;1.50;;;3.60;89.70;;;;;;4920842;29;20899;-77
2022/03/05 12:19:50;;;;;;;1.93;1.63;;;3.60;90.40;;;;;;4920862;29;20421;-79
2022/03/05 12:22:15;;;;;;;2.53;1.80;;;3.30;90.80;;;;;;4920570;29;20442;-80
2022/03/05 12:24:41;;;;;;;5.50;2.20;;;3.40;91.70;;;;;;4903732;29;20503;-81
2022/03/05 12:27:14;;;;;;;3.43;2.80;;;3.40;92.60;;;;;;4902569;29;20639;-79
2022/03/05 12:29:51;;;;;;;4.37;2.57;;;3.30;95.30;;;;;;4920085;29;20172;-81
2022/03/05 12:32:18;;;;;;;3.67;2.03;;;3.10;95.40;;;;;;4902577;29;20450;-80
2022/03/05 12:34:44;;;;;;;7.03;3.10;;;3.20;95.80;;;;;;4903628;29;20427;-79
2022/03/05 12:37:10;;;;;;;3.03;2.60;;;3.40;93.50;;;;;;4903105;29;20824;-80
2022/03/05 12:39:43;;;;;;;4.47;2.60;;;3.50;95.30;;;;;;4903203;29;20180;-80
2022/03/05 12:42:09;;;;;;;2.63;1.93;;;3.50;94.30;;;;;;4918845;29;20439;-78
2022/03/05 12:44:36;;;;;;;2.83;1.93;;;3.60;90.40;;;;;;4937158;29;20831;-78
2022/03/05 12:47:01;;;;;;;6.87;2.80;;;3.90;92.30;;;;;;4921378;29;20428;-78
2022/03/05 12:49:27;;;;;;;3.97;2.27;;;4.20;91.10;;;;;;4933476;29;20483;-78
2022/03/05 12:51:52;;;;;;;5.40;1.80;;;4.40;90.80;;;;;;4936125;29;20207;-78
2022/03/05 12:54:18;;;;;;;2.53;2.17;;;4.20;92.50;;;;;;4915676;29;20597;-78
2022/03/05 12:56:43;;;;;;;3.10;2.73;;;3.80;94.40;;;;;;4918111;29;20184;-78
2022/03/05 12:59:09;;;;;;;7.70;3.10;;;3.80;96.00;;;;;;4918631;29;20653;-78
2022/03/05 13:01:34;;;;;;;5.33;2.53;;;3.60;96.30;;;;;;4936552;29;20211;-78
2022/03/05 13:04:00;;;;;;;3.77;2.53;;;3.20;96.30;;;;;;4936388;29;20180;-78
2022/03/05 13:06:26;;;;;;;6.80;3.23;;;2.80;96.30;;;;;;4938847;29;20658;-78
2022/03/05 13:08:52;;;;;;;5.67;2.60;;;2.70;96.30;;;;;;4937567;29;20194;-77
2022/03/05 13:11:21;;;;;;;3.30;2.07;;;2.40;96.30;;;;;;4945986;29;20463;-77
2022/03/05 13:13:49;;;;;;;7.03;2.50;;;2.20;96.30;;;;;;4906073;29;20432;-77
2022/03/05 13:16:26;;;;;;;5.37;3.33;;;2.20;96.30;;;;;;4916762;29;21000;-78
2022/03/05 13:18:58;;;;;;;3.73;2.30;;;2.20;96.30;;;;;;4915433;29;20431;-78
2022/03/05 13:21:23;;;;;;;8.10;3.80;;;2.30;96.30;;;;;;4935668;29;20582;-79
2022/03/05 13:23:49;;;;;;;3.03;2.20;;;2.30;96.30;;;;;;4931510;29;21001;-79
2022/03/05 13:26:15;;;;;;;6.10;3.47;;;2.50;96.30;;;;;;4936486;29;20192;-79
2022/03/05 13:28:40;;;;;;;5.63;2.03;;;2.60;96.30;;;;;;4935847;29;20211;-79
2022/03/05 13:31:06;;;;;;;7.07;3.00;;;2.60;96.30;;;;;;4919490;29;20290;-78
2022/03/05 13:33:43;;;;;;;3.23;2.20;;;2.60;96.30;;;;;;4915758;29;20235;-78
2022/03/05 13:36:22;;;;;;;8.60;2.73;;;2.60;96.30;;;;;;4902212;29;20591;-78
2022/03/05 13:39:09;;;;;;;6.93;2.90;;;2.80;96.30;;;;;;4934476;29;20427;-79
2022/03/05 13:41:39;;;;;;;4.00;2.03;;;2.70;96.30;;;;;;4926959;29;20446;-79
2022/03/05 13:44:05;;;;;;;9.20;2.30;;;2.70;96.30;;;;;;4920532;29;20439;-79
2022/03/05 13:46:31;;;;;;;4.90;2.50;;;2.70;96.30;;;;;;4937038;29;20443;-80
2022/03/05 13:49:00;;;;;;;3.20;2.63;;;2.80;96.30;;;;;;4919614;29;20455;-80
2022/03/05 13:51:31;;;;;;;6.03;2.73;;;2.80;96.30;;;;;;4919669;29;20478;-79
2022/03/05 13:54:00;;;;;;;2.20;2.00;;;3.00;96.30;;;;;;4927544;29;20777;-80
2022/03/05 13:56:39;;;;;;;2.80;2.07;;;2.80;96.30;;;;;;4938715;29;20421;-80
2022/03/05 13:59:04;;;;;;;6.50;2.67;;;2.80;96.30;;;;;;4938631;29;21129;-79
2022/03/05 14:01:39;;;;;;;2.83;2.00;;;3.00;96.30;;;;;;4924486;29;20490;-79
2022/03/05 14:04:15;;;;;;;4.03;2.30;;;3.00;96.30;;;;;;4932610;29;20217;-79
2022/03/05 14:06:58;;;;;;;3.10;2.50;;;3.10;96.30;;;;;;4933739;29;20432;-80
2022/03/05 14:09:30;;;;;;;4.53;2.87;;;2.90;96.30;;;;;;4929890;29;20550;-80
2022/03/05 14:12:07;;;;;;;3.13;2.00;;;2.80;96.30;;;;;;4915990;29;20829;-76
2022/03/05 14:14:50;;;;;;;5.70;3.17;;;2.90;96.30;;;;;;4926182;29;20435;-77
2022/03/05 14:17:57;;;;;;;5.97;2.87;;;2.80;96.30;;;;;;4908932;29;20424;-78
2022/03/05 14:20:26;;;;;;;4.27;2.70;;;2.80;96.30;;;;;;4904873;29;20778;-79
2022/03/05 14:23:03;;;;;;;5.27;3.30;;;2.60;96.30;;;;;;4914579;29;20428;-80
2022/03/05 14:25:32;;;;;;;5.03;2.67;;;2.50;96.30;;;;;;4938618;29;20412;-80
2022/03/05 14:28:00;;;;;;;8.10;2.90;;;2.60;96.30;;;;;;4902768;29;20460;-80
2022/03/05 14:30:28;;;;;;;5.33;2.93;;;2.70;96.30;;;;;;4934450;29;20865;-79
2022/03/05 14:32:55;;;;;;;5.40;3.10;;;2.80;96.30;;;;;;4919494;29;20430;-80
2022/03/05 14:35:21;;;;;;;4.60;2.47;;;2.80;96.30;;;;;;4936761;29;20443;-79
2022/03/05 14:37:49;;;;;;;6.17;3.60;;;2.80;96.30;;;;;;4918234;29;20428;-78
2022/03/05 14:40:18;;;;;;;6.03;4.10;;;2.80;96.30;;;;;;4934494;29;20434;-78
2022/03/05 14:42:44;;;;;;;5.07;3.73;;;2.80;96.30;;;;;;4935039;29;20835;-78
2022/03/05 14:45:11;;;;;;;45.70;20.23;;;2.70;96.30;;;;;;4925791;29;20995;-78
2022/03/05 14:47:37;;;;;;;47.13;21.70;;;2.70;96.30;;;;;;4925756;29;20482;-78
2022/03/05 14:50:05;;;;;;;34.27;17.17;;;2.40;96.30;;;;;;4917759;29;20506;-78
2022/03/05 14:52:30;;;;;;;23.97;12.37;;;2.40;96.30;;;;;;4934822;29;20478;-78
2022/03/05 14:54:56;;;;;;;38.30;14.83;;;2.50;96.30;;;;;;4934740;29;20487;-78
2022/03/05 14:57:21;;;;;;;7.70;3.73;;;2.40;96.30;;;;;;4917776;29;20232;-78
2022/03/05 14:59:48;;;;;;;8.20;3.77;;;2.40;96.30;;;;;;4933839;29;20235;-78
2022/03/05 15:02:14;;;;;;;9.23;4.93;;;2.40;96.30;;;;;;4934572;29;20198;-79
2022/03/05 15:04:39;;;;;;;5.07;3.63;;;2.50;96.30;;;;;;4934591;29;20415;-78
2022/03/05 15:07:05;;;;;;;6.83;4.63;;;2.40;96.30;;;;;;4917360;29;20423;-79
2022/03/05 15:09:30;;;;;;;10.23;5.60;;;2.20;96.30;;;;;;4921395;29;20267;-79
2022/03/05 15:11:56;;;;;;;7.97;4.33;;;2.30;96.30;;;;;;4933646;29;20244;-79
2022/03/05 15:14:21;;;;;;;7.10;3.93;;;2.20;96.30;;;;;;4917598;29;20234;-79
2022/03/05 15:16:48;;;;;;;10.60;4.73;;;2.30;96.30;;;;;;4935006;29;20538;-79
2022/03/05 15:19:15;;;;;;;8.67;5.03;;;2.30;96.30;;;;;;4916973;29;20638;-77
2022/03/05 15:21:41;;;;;;;5.10;4.10;;;2.20;96.30;;;;;;4934495;29;20431;-78
2022/03/05 15:24:06;;;;;;;6.97;4.50;;;2.20;96.30;;;;;;4917539;29;20445;-79
2022/03/05 15:26:32;;;;;;;5.80;4.40;;;2.10;96.30;;;;;;4917537;29;20645;-78
2022/03/05 15:28:57;;;;;;;6.23;4.10;;;2.10;96.30;;;;;;4910605;29;20615;-78
2022/03/05 15:31:23;;;;;;;7.70;4.37;;;2.10;96.30;;;;;;4916384;29;20785;-79
2022/03/05 15:33:49;;;;;;;6.20;4.20;;;2.20;96.30;;;;;;4931323;29;20195;-79
2022/03/05 15:36:15;;;;;;;7.13;3.87;;;2.20;96.30;;;;;;4916621;29;20207;-79
2022/03/05 15:38:42;;;;;;;4.23;3.70;;;2.10;96.30;;;;;;4916606;29;20180;-79
2022/03/05 15:41:10;;;;;;;6.43;5.00;;;2.20;96.30;;;;;;4934464;29;20447;-79
2022/03/05 15:43:36;;;;;;;7.00;4.40;;;2.20;96.30;;;;;;4917789;29;20438;-80
2022/03/05 15:46:03;;;;;;;7.00;4.07;;;2.20;96.30;;;;;;4934733;29;20407;-80
2022/03/05 15:48:28;;;;;;;5.20;3.87;;;2.20;96.30;;;;;;4937201;29;21029;-80
2022/03/05 15:50:54;;;;;;;8.93;4.20;;;2.20;96.30;;;;;;4920751;29;20476;-79
2022/03/05 15:53:19;;;;;;;5.67;3.63;;;2.20;96.30;;;;;;4920499;29;20187;-79
2022/03/05 15:55:45;;;;;;;6.43;4.00;;;2.20;96.30;;;;;;4937906;29;20252;-81
2022/03/05 15:58:10;;;;;;;4.73;3.90;;;2.10;96.30;;;;;;4920172;29;20187;-81
2022/03/05 16:00:36;;;;;;;8.27;3.73;;;2.00;96.30;;;;;;4938473;29;20219;-80
2022/03/05 16:03:02;;;;;;;6.27;4.00;;;2.00;96.30;;;;;;4930606;29;20188;-78
2022/03/05 16:05:27;;;;;;;6.97;3.67;;;1.90;96.30;;;;;;4938079;29;20263;-78
2022/03/05 16:07:53;;;;;;;6.37;3.37;;;2.00;96.30;;;;;;4921073;29;20458;-79
2022/03/05 16:10:19;;;;;;;6.60;3.43;;;1.90;96.30;;;;;;4936047;29;20172;-79
2022/03/05 16:12:47;;;;;;;4.27;3.63;;;1.80;96.30;;;;;;4918842;29;20176;-79
2022/03/05 16:15:13;;;;;;;6.97;4.10;;;1.60;96.30;;;;;;4901603;29;20176;-79
2022/03/05 16:17:39;;;;;;;6.63;2.63;;;1.50;96.30;;;;;;4902166;29;20432;-80
2022/03/05 16:20:05;;;;;;;4.80;2.70;;;1.40;96.30;;;;;;4902105;29;20185;-79
2022/03/05 16:22:31;;;;;;;7.57;3.53;;;1.30;96.30;;;;;;4918440;29;20704;-79
2022/03/05 16:24:57;;;;;;;3.60;3.20;;;1.30;96.30;;;;;;4903076;29;20428;-79
2022/03/05 16:27:23;;;;;;;5.50;3.40;;;1.20;96.30;;;;;;4918224;29;20181;-79
2022/03/05 16:29:48;;;;;;;5.70;3.40;;;1.10;96.30;;;;;;4905052;29;20180;-79
2022/03/05 16:32:15;;;;;;;4.17;3.40;;;1.10;96.30;;;;;;4904395;29;20520;-79
2022/03/05 16:34:40;;;;;;;3.93;3.33;;;0.90;96.30;;;;;;4903195;29;20184;-80
2022/03/05 16:37:06;;;;;;;4.00;3.07;;;0.90;96.30;;;;;;4917839;29;20487;-79
2022/03/05 16:39:32;;;;;;;5.77;3.17;;;0.80;96.30;;;;;;4900675;29;20646;-79
2022/03/05 16:41:58;;;;;;;9.60;4.07;;;0.70;96.30;;;;;;4917888;29;20196;-80
2022/03/05 16:44:25;;;;;;;4.10;3.40;;;0.60;96.30;;;;;;4900929;29;20428;-79
2022/03/05 16:46:50;;;;;;;5.67;3.60;;;0.50;96.30;;;;;;4932394;29;20487;-80
2022/03/05 16:49:18;;;;;;;3.07;2.77;;;0.40;96.30;;;;;;4932057;29;20453;-78
2022/03/05 16:51:45;;;;;;;4.60;4.07;;;0.30;96.30;;;;;;4920479;29;20204;-80
2022/03/05 16:54:10;;;;;;;4.07;3.23;;;0.20;96.30;;;;;;4913900;29;20425;-81
2022/03/05 16:56:38;;;;;;;8.17;3.30;;;0.10;96.30;;;;;;4916954;29;20412;-79
2022/03/05 16:59:05;;;;;;;7.70;3.73;;;0.00;96.30;;;;;;4917054;29;20176;-80
2022/03/05 17:01:30;;;;;;;7.17;3.60;;;-0.10;96.30;;;;;;4908422;29;20463;-78
2022/03/05 17:03:56;;;;;;;5.00;3.70;;;-0.30;96.30;;;;;;4910838;29;20415;-81
2022/03/05 17:06:22;;;;;;;6.67;4.20;;;-0.40;96.30;;;;;;4936747;29;20188;-79
2022/03/05 17:08:47;;;;;;;4.70;3.43;;;-0.40;96.30;;;;;;4920101;29;20246;-79
2022/03/05 17:11:13;;;;;;;5.90;4.20;;;-0.40;96.30;;;;;;4919765;29;20192;-80
2022/03/05 17:13:39;;;;;;;10.30;5.17;;;-0.40;96.30;;;;;;4936537;29;20184;-80
2022/03/05 17:16:05;;;;;;;13.90;5.03;;;-0.10;96.30;;;;;;4919720;29;20550;-78
2022/03/05 17:18:31;;;;;;;10.17;4.80;;;0.00;96.30;;;;;;4919274;29;20427;-78
2022/03/05 17:20:56;;;;;;;6.03;4.50;;;0.10;96.30;;;;;;4936425;29;20538;-79
2022/03/05 17:23:22;;;;;;;10.80;5.00;;;0.20;96.30;;;;;;4919102;29;20189;-76
2022/03/05 17:25:48;;;;;;;8.43;5.80;;;0.10;96.30;;;;;;4936109;29;20538;-78
2022/03/05 17:28:14;;;;;;;7.27;4.90;;;0.10;96.30;;;;;;4919148;29;20253;-79
2022/03/05 17:30:39;;;;;;;5.90;4.30;;;0.00;96.30;;;;;;4913462;29;20523;-78
2022/03/05 17:33:07;;;;;;;7.80;4.80;;;-0.10;96.30;;;;;;4931477;29;20664;-77
2022/03/05 17:35:33;;;;;;;8.90;5.00;;;-0.10;96.30;;;;;;4946248;28;20181;-76
2022/03/05 17:37:59;;;;;;;5.47;4.20;;;-0.20;96.30;;;;;;4954585;29;20422;-76
2022/03/05 17:40:24;;;;;;;9.10;7.20;;;-0.20;96.30;;;;;;4937704;29;20502;-78
2022/03/05 17:42:50;;;;;;;10.20;7.60;;;-0.20;96.30;;;;;;4954833;29;20283;-78
2022/03/05 17:45:18;;;;;;;25.07;17.97;;;-0.20;96.30;;;;;;4925095;29;20212;-78
2022/03/05 17:47:46;;;;;;;49.93;29.17;;;-0.20;96.30;;;;;;4922493;29;20200;-78
2022/03/05 17:50:13;;;;;;;31.10;15.80;;;-0.20;96.30;;;;;;4914839;29;20417;-78
2022/03/05 17:52:39;;;;;;;14.27;8.87;;;-0.30;96.30;;;;;;4925771;29;20487;-79
2022/03/05 17:55:06;;;;;;;12.50;6.53;;;-0.30;96.30;;;;;;4908726;29;20424;-78
2022/03/05 17:57:32;;;;;;;7.33;5.20;;;-0.30;96.30;;;;;;4915355;29;20232;-78
2022/03/05 17:59:58;;;;;;;11.00;6.30;;;-0.30;96.30;;;;;;4915086;29;20492;-78
2022/03/05 18:02:23;;;;;;;12.03;6.57;;;-0.40;96.30;;;;;;4898547;29;20448;-77
2022/03/05 18:04:49;;;;;;;8.53;6.60;;;-0.40;96.30;;;;;;4899078;29;20208;-78
2022/03/05 18:07:14;;;;;;;13.43;8.83;;;-0.40;96.30;;;;;;4916023;29;20183;-77
2022/03/05 18:09:40;;;;;;;18.97;7.87;;;-0.30;96.30;;;;;;4897959;29;20187;-78
2022/03/05 18:12:06;;;;;;;9.47;6.10;;;-0.30;96.30;;;;;;4898832;29;20196;-77
2022/03/05 18:14:32;;;;;;;7.40;5.23;;;-0.30;96.30;;;;;;4898907;29;20444;-77
2022/03/05 18:16:57;;;;;;;7.43;5.43;;;-0.30;96.30;;;;;;4915752;29;20483;-77
2022/03/05 18:19:24;;;;;;;14.33;6.40;;;-0.30;96.30;;;;;;4915000;29;20256;-80
2022/03/05 18:21:52;;;;;;;7.90;6.03;;;-0.30;96.30;;;;;;4914646;29;20706;-80
2022/03/05 18:24:18;;;;;;;13.90;6.10;;;-0.30;96.30;;;;;;4926974;29;20431;-77
2022/03/05 18:26:43;;;;;;;11.87;6.53;;;-0.30;96.30;;;;;;4934513;29;20419;-78